sensor_id;sensor_type;location;lat;lon;timestamp;P1;durP1;ratioP1;P2;durP2;ratioP2
8893;SDS011;4483;48.622;9.230;2023-04-29T00:01:34;1.57;;;1.50;;
8893;SDS011;4483;48.622;9.230;2023-04-29T00:04:01;1.50;;;1.40;;
8893;SDS011;4483;48.622;9.230;2023-04-29T00:06:29;1.43;;;1.43;;
8893;SDS011;4483;48.622;9.230;2023-04-29T00:08:58;1.40;;;1.40;;
8893;SDS011;4483;48.622;9.230;2023-04-29T00:11:25;1.40;;;1.40;;
8893;SDS011;4483;48.622;9.230;2023-04-29T00:13:52;1.53;;;1.43;;
8893;SDS011;4483;48.622;9.230;2023-04-29T00:16:18;1.57;;;1.47;;
8893;SDS011;4483;48.622;9.230;2023-04-29T00:18:45;1.43;;;1.33;;
8893;SDS011;4483;48.622;9.230;2023-04-29T00:21:11;1.97;;;1.87;;
8893;SDS011;4483;48.622;9.230;2023-04-29T00:23:39;2.63;;;1.53;;
8893;SDS011;4483;48.622;9.230;2023-04-29T00:26:06;2.13;;;1.50;;
8893;SDS011;4483;48.622;9.230;2023-04-29T00:28:33;1.50;;;1.50;;
8893;SDS011;4483;48.622;9.230;2023-04-29T00:30:59;1.80;;;1.70;;
8893;SDS011;4483;48.622;9.230;2023-04-29T00:33:26;1.50;;;1.40;;
8893;SDS011;4483;48.622;9.230;2023-04-29T00:35:52;1.40;;;1.30;;
8893;SDS011;4483;48.622;9.230;2023-04-29T00:38:19;2.87;;;1.50;;
8893;SDS011;4483;48.622;9.230;2023-04-29T00:40:47;1.40;;;1.40;;
8893;SDS011;4483;48.622;9.230;2023-04-29T00:43:14;1.47;;;1.40;;
8893;SDS011;4483;48.622;9.230;2023-04-29T00:45:41;1.60;;;1.50;;
8893;SDS011;4483;48.622;9.230;2023-04-29T00:48:07;3.43;;;1.70;;
8893;SDS011;4483;48.622;9.230;2023-04-29T00:50:34;1.93;;;1.70;;
8893;SDS011;4483;48.622;9.230;2023-04-29T00:53:01;1.40;;;1.30;;
8893;SDS011;4483;48.622;9.230;2023-04-29T00:55:28;7.30;;;1.73;;
8893;SDS011;4483;48.622;9.230;2023-04-29T00:57:57;1.50;;;1.40;;
8893;SDS011;4483;48.622;9.230;2023-04-29T01:00:24;1.90;;;1.80;;
8893;SDS011;4483;48.622;9.230;2023-04-29T01:02:52;1.73;;;1.50;;
8893;SDS011;4483;48.622;9.230;2023-04-29T01:05:21;3.67;;;1.40;;
8893;SDS011;4483;48.622;9.230;2023-04-29T01:07:49;1.90;;;1.50;;
8893;SDS011;4483;48.622;9.230;2023-04-29T01:10:26;1.47;;;1.37;;
8893;SDS011;4483;48.622;9.230;2023-04-29T01:12:58;1.60;;;1.50;;
8893;SDS011;4483;48.622;9.230;2023-04-29T01:15:34;1.60;;;1.47;;
8893;SDS011;4483;48.622;9.230;2023-04-29T01:18:09;2.17;;;1.80;;
8893;SDS011;4483;48.622;9.230;2023-04-29T01:20:37;2.10;;;2.00;;
8893;SDS011;4483;48.622;9.230;2023-04-29T01:23:06;1.37;;;1.37;;
8893;SDS011;4483;48.622;9.230;2023-04-29T01:25:34;1.60;;;1.50;;
8893;SDS011;4483;48.622;9.230;2023-04-29T01:28:03;2.77;;;1.50;;
8893;SDS011;4483;48.622;9.230;2023-04-29T01:30:41;1.60;;;1.50;;
8893;SDS011;4483;48.622;9.230;2023-04-29T01:33:16;1.67;;;1.40;;
8893;SDS011;4483;48.622;9.230;2023-04-29T01:35:55;1.57;;;1.47;;
8893;SDS011;4483;48.622;9.230;2023-04-29T01:38:30;1.40;;;1.40;;
8893;SDS011;4483;48.622;9.230;2023-04-29T01:41:05;1.70;;;1.60;;
8893;SDS011;4483;48.622;9.230;2023-04-29T01:43:36;4.83;;;1.63;;
8893;SDS011;4483;48.622;9.230;2023-04-29T01:46:03;2.07;;;1.40;;
8893;SDS011;4483;48.622;9.230;2023-04-29T01:48:31;3.57;;;1.80;;
8893;SDS011;4483;48.622;9.230;2023-04-29T01:50:58;7.90;;;1.40;;
8893;SDS011;4483;48.622;9.230;2023-04-29T01:53:25;3.03;;;1.20;;
8893;SDS011;4483;48.622;9.230;2023-04-29T01:55:52;4.23;;;1.23;;
8893;SDS011;4483;48.622;9.230;2023-04-29T01:58:20;1.40;;;1.40;;
8893;SDS011;4483;48.622;9.230;2023-04-29T02:00:47;1.50;;;1.27;;
8893;SDS011;4483;48.622;9.230;2023-04-29T02:03:13;1.93;;;1.50;;
8893;SDS011;4483;48.622;9.230;2023-04-29T02:05:41;1.47;;;1.40;;
8893;SDS011;4483;48.622;9.230;2023-04-29T02:08:08;2.07;;;1.50;;
8893;SDS011;4483;48.622;9.230;2023-04-29T02:10:35;1.37;;;1.30;;
8893;SDS011;4483;48.622;9.230;2023-04-29T02:13:01;1.33;;;1.30;;
8893;SDS011;4483;48.622;9.230;2023-04-29T02:15:29;1.70;;;1.60;;
8893;SDS011;4483;48.622;9.230;2023-04-29T02:17:56;1.43;;;1.40;;
8893;SDS011;4483;48.622;9.230;2023-04-29T02:20:23;3.43;;;1.40;;
8893;SDS011;4483;48.622;9.230;2023-04-29T02:22:49;2.03;;;1.13;;
8893;SDS011;4483;48.622;9.230;2023-04-29T02:25:16;1.40;;;1.40;;
8893;SDS011;4483;48.622;9.230;2023-04-29T02:27:43;1.50;;;1.50;;
8893;SDS011;4483;48.622;9.230;2023-04-29T02:30:09;3.60;;;1.30;;
8893;SDS011;4483;48.622;9.230;2023-04-29T02:32:38;3.57;;;1.33;;
8893;SDS011;4483;48.622;9.230;2023-04-29T02:35:05;1.43;;;1.30;;
8893;SDS011;4483;48.622;9.230;2023-04-29T02:37:32;1.20;;;1.20;;
8893;SDS011;4483;48.622;9.230;2023-04-29T02:39:59;3.10;;;1.30;;
8893;SDS011;4483;48.622;9.230;2023-04-29T02:42:27;1.70;;;1.60;;
8893;SDS011;4483;48.622;9.230;2023-04-29T02:44:54;1.93;;;1.83;;
8893;SDS011;4483;48.622;9.230;2023-04-29T02:47:20;1.50;;;1.40;;
8893;SDS011;4483;48.622;9.230;2023-04-29T02:49:48;1.47;;;1.43;;
8893;SDS011;4483;48.622;9.230;2023-04-29T02:52:15;3.57;;;1.60;;
8893;SDS011;4483;48.622;9.230;2023-04-29T02:54:43;1.47;;;1.37;;
8893;SDS011;4483;48.622;9.230;2023-04-29T02:57:10;1.30;;;1.20;;
8893;SDS011;4483;48.622;9.230;2023-04-29T02:59:36;1.17;;;1.17;;
8893;SDS011;4483;48.622;9.230;2023-04-29T03:02:03;1.60;;;1.50;;
8893;SDS011;4483;48.622;9.230;2023-04-29T03:04:29;2.37;;;2.17;;
8893;SDS011;4483;48.622;9.230;2023-04-29T03:06:57;1.47;;;1.40;;
8893;SDS011;4483;48.622;9.230;2023-04-29T03:09:24;2.73;;;1.37;;
8893;SDS011;4483;48.622;9.230;2023-04-29T03:11:51;1.67;;;1.50;;
8893;SDS011;4483;48.622;9.230;2023-04-29T03:14:18;1.47;;;1.37;;
8893;SDS011;4483;48.622;9.230;2023-04-29T03:16:45;2.30;;;1.30;;
8893;SDS011;4483;48.622;9.230;2023-04-29T03:19:11;2.43;;;1.10;;
8893;SDS011;4483;48.622;9.230;2023-04-29T03:21:38;1.20;;;1.20;;
8893;SDS011;4483;48.622;9.230;2023-04-29T03:24:06;1.53;;;1.43;;
8893;SDS011;4483;48.622;9.230;2023-04-29T03:26:33;1.67;;;1.40;;
8893;SDS011;4483;48.622;9.230;2023-04-29T03:28:59;1.20;;;1.20;;
8893;SDS011;4483;48.622;9.230;2023-04-29T03:31:26;1.70;;;1.60;;
8893;SDS011;4483;48.622;9.230;2023-04-29T03:33:52;1.37;;;1.37;;
8893;SDS011;4483;48.622;9.230;2023-04-29T03:36:19;1.40;;;1.40;;
8893;SDS011;4483;48.622;9.230;2023-04-29T03:38:46;1.50;;;1.40;;
8893;SDS011;4483;48.622;9.230;2023-04-29T03:41:14;2.17;;;1.47;;
8893;SDS011;4483;48.622;9.230;2023-04-29T03:43:40;3.37;;;1.20;;
8893;SDS011;4483;48.622;9.230;2023-04-29T03:46:08;1.13;;;1.10;;
8893;SDS011;4483;48.622;9.230;2023-04-29T03:48:35;3.13;;;1.30;;
8893;SDS011;4483;48.622;9.230;2023-04-29T03:51:02;3.27;;;1.40;;
8893;SDS011;4483;48.622;9.230;2023-04-29T03:53:28;1.43;;;1.30;;
8893;SDS011;4483;48.622;9.230;2023-04-29T03:55:56;1.40;;;1.30;;
8893;SDS011;4483;48.622;9.230;2023-04-29T03:58:24;1.67;;;1.50;;
8893;SDS011;4483;48.622;9.230;2023-04-29T04:00:51;3.67;;;1.40;;
8893;SDS011;4483;48.622;9.230;2023-04-29T04:03:18;3.00;;;1.37;;
8893;SDS011;4483;48.622;9.230;2023-04-29T04:05:44;1.90;;;1.40;;
8893;SDS011;4483;48.622;9.230;2023-04-29T04:08:11;1.47;;;1.37;;
8893;SDS011;4483;48.622;9.230;2023-04-29T04:10:37;1.10;;;1.10;;
8893;SDS011;4483;48.622;9.230;2023-04-29T04:13:04;5.30;;;1.73;;
8893;SDS011;4483;48.622;9.230;2023-04-29T04:15:32;2.03;;;1.53;;
8893;SDS011;4483;48.622;9.230;2023-04-29T04:17:59;5.73;;;1.70;;
8893;SDS011;4483;48.622;9.230;2023-04-29T04:20:25;2.73;;;1.30;;
8893;SDS011;4483;48.622;9.230;2023-04-29T04:22:52;2.63;;;1.20;;
8893;SDS011;4483;48.622;9.230;2023-04-29T04:25:18;2.17;;;1.90;;
8893;SDS011;4483;48.622;9.230;2023-04-29T04:27:45;6.30;;;1.60;;
8893;SDS011;4483;48.622;9.230;2023-04-29T04:30:12;5.00;;;1.57;;
8893;SDS011;4483;48.622;9.230;2023-04-29T04:32:40;5.77;;;1.67;;
8893;SDS011;4483;48.622;9.230;2023-04-29T04:35:07;1.60;;;1.50;;
8893;SDS011;4483;48.622;9.230;2023-04-29T04:37:34;3.33;;;1.60;;
8893;SDS011;4483;48.622;9.230;2023-04-29T04:40:00;2.50;;;1.83;;
8893;SDS011;4483;48.622;9.230;2023-04-29T04:42:27;4.07;;;1.60;;
8893;SDS011;4483;48.622;9.230;2023-04-29T04:44:53;10.80;;;2.10;;
8893;SDS011;4483;48.622;9.230;2023-04-29T04:47:21;2.90;;;1.90;;
8893;SDS011;4483;48.622;9.230;2023-04-29T04:49:49;3.43;;;1.70;;
8893;SDS011;4483;48.622;9.230;2023-04-29T04:52:18;5.70;;;1.67;;
8893;SDS011;4483;48.622;9.230;2023-04-29T04:54:45;4.83;;;1.90;;
8893;SDS011;4483;48.622;9.230;2023-04-29T04:57:12;1.87;;;1.50;;
8893;SDS011;4483;48.622;9.230;2023-04-29T04:59:39;2.57;;;1.80;;
8893;SDS011;4483;48.622;9.230;2023-04-29T05:02:05;1.87;;;1.77;;
8893;SDS011;4483;48.622;9.230;2023-04-29T05:04:32;1.90;;;1.80;;
8893;SDS011;4483;48.622;9.230;2023-04-29T05:07:00;3.73;;;1.80;;
8893;SDS011;4483;48.622;9.230;2023-04-29T05:09:27;2.10;;;1.83;;
8893;SDS011;4483;48.622;9.230;2023-04-29T05:11:54;1.87;;;1.77;;
8893;SDS011;4483;48.622;9.230;2023-04-29T05:14:20;2.90;;;1.80;;
8893;SDS011;4483;48.622;9.230;2023-04-29T05:16:47;4.27;;;1.70;;
8893;SDS011;4483;48.622;9.230;2023-04-29T05:19:15;4.00;;;1.67;;
8893;SDS011;4483;48.622;9.230;2023-04-29T05:21:42;1.90;;;1.80;;
8893;SDS011;4483;48.622;9.230;2023-04-29T05:24:10;5.00;;;2.13;;
8893;SDS011;4483;48.622;9.230;2023-04-29T05:26:36;1.80;;;1.70;;
8893;SDS011;4483;48.622;9.230;2023-04-29T05:29:03;2.60;;;1.77;;
8893;SDS011;4483;48.622;9.230;2023-04-29T05:31:29;9.10;;;1.90;;
8893;SDS011;4483;48.622;9.230;2023-04-29T05:33:57;1.60;;;1.60;;
8893;SDS011;4483;48.622;9.230;2023-04-29T05:36:24;2.03;;;1.90;;
8893;SDS011;4483;48.622;9.230;2023-04-29T05:38:52;9.10;;;1.73;;
8893;SDS011;4483;48.622;9.230;2023-04-29T05:41:20;3.13;;;2.00;;
8893;SDS011;4483;48.622;9.230;2023-04-29T05:43:48;7.13;;;1.90;;
8893;SDS011;4483;48.622;9.230;2023-04-29T05:46:14;2.50;;;1.60;;
8893;SDS011;4483;48.622;9.230;2023-04-29T05:48:41;1.50;;;1.50;;
8893;SDS011;4483;48.622;9.230;2023-04-29T05:51:08;2.43;;;1.60;;
8893;SDS011;4483;48.622;9.230;2023-04-29T05:53:34;1.93;;;1.83;;
8893;SDS011;4483;48.622;9.230;2023-04-29T05:56:02;1.77;;;1.67;;
8893;SDS011;4483;48.622;9.230;2023-04-29T05:58:33;2.63;;;1.60;;
8893;SDS011;4483;48.622;9.230;2023-04-29T06:01:00;1.93;;;1.50;;
8893;SDS011;4483;48.622;9.230;2023-04-29T06:03:27;1.40;;;1.40;;
8893;SDS011;4483;48.622;9.230;2023-04-29T06:05:54;1.47;;;1.47;;
8893;SDS011;4483;48.622;9.230;2023-04-29T06:08:21;1.93;;;1.60;;
8893;SDS011;4483;48.622;9.230;2023-04-29T06:10:48;1.70;;;1.30;;
8893;SDS011;4483;48.622;9.230;2023-04-29T06:13:15;2.03;;;1.53;;
8893;SDS011;4483;48.622;9.230;2023-04-29T06:15:44;1.30;;;1.30;;
8893;SDS011;4483;48.622;9.230;2023-04-29T06:18:10;1.80;;;1.70;;
8893;SDS011;4483;48.622;9.230;2023-04-29T06:20:37;1.50;;;1.37;;
8893;SDS011;4483;48.622;9.230;2023-04-29T06:23:04;1.50;;;1.50;;
8893;SDS011;4483;48.622;9.230;2023-04-29T06:25:30;2.03;;;1.37;;
8893;SDS011;4483;48.622;9.230;2023-04-29T06:27:58;1.30;;;1.30;;
8893;SDS011;4483;48.622;9.230;2023-04-29T06:30:25;1.40;;;1.40;;
8893;SDS011;4483;48.622;9.230;2023-04-29T06:32:53;3.10;;;1.40;;
8893;SDS011;4483;48.622;9.230;2023-04-29T06:35:19;1.47;;;1.43;;
8893;SDS011;4483;48.622;9.230;2023-04-29T06:37:47;1.30;;;1.30;;
8893;SDS011;4483;48.622;9.230;2023-04-29T06:40:13;1.40;;;1.40;;
8893;SDS011;4483;48.622;9.230;2023-04-29T06:42:40;1.20;;;1.20;;
8893;SDS011;4483;48.622;9.230;2023-04-29T06:45:08;1.57;;;1.30;;
8893;SDS011;4483;48.622;9.230;2023-04-29T06:47:35;1.37;;;1.37;;
8893;SDS011;4483;48.622;9.230;2023-04-29T06:50:03;1.43;;;1.33;;
8893;SDS011;4483;48.622;9.230;2023-04-29T06:52:30;1.70;;;1.60;;
8893;SDS011;4483;48.622;9.230;2023-04-29T06:54:57;1.37;;;1.37;;
8893;SDS011;4483;48.622;9.230;2023-04-29T06:57:24;2.10;;;1.30;;
8893;SDS011;4483;48.622;9.230;2023-04-29T06:59:51;1.90;;;1.20;;
8893;SDS011;4483;48.622;9.230;2023-04-29T07:02:17;1.40;;;1.30;;
8893;SDS011;4483;48.622;9.230;2023-04-29T07:04:44;1.30;;;1.20;;
8893;SDS011;4483;48.622;9.230;2023-04-29T07:07:12;1.10;;;1.10;;
8893;SDS011;4483;48.622;9.230;2023-04-29T07:09:39;1.30;;;1.20;;
8893;SDS011;4483;48.622;9.230;2023-04-29T07:12:05;1.10;;;1.10;;
8893;SDS011;4483;48.622;9.230;2023-04-29T07:14:32;2.45;;;1.00;;
8893;SDS011;4483;48.622;9.230;2023-04-29T07:16:58;0.98;;;0.98;;
8893;SDS011;4483;48.622;9.230;2023-04-29T07:19:25;1.50;;;1.20;;
8893;SDS011;4483;48.622;9.230;2023-04-29T07:21:52;1.00;;;1.00;;
8893;SDS011;4483;48.622;9.230;2023-04-29T07:24:20;1.25;;;1.25;;
8893;SDS011;4483;48.622;9.230;2023-04-29T07:26:47;1.17;;;1.13;;
8893;SDS011;4483;48.622;9.230;2023-04-29T07:29:14;3.78;;;1.10;;
8893;SDS011;4483;48.622;9.230;2023-04-29T07:31:41;1.05;;;1.05;;
8893;SDS011;4483;48.622;9.230;2023-04-29T07:34:07;2.08;;;1.17;;
8893;SDS011;4483;48.622;9.230;2023-04-29T07:36:34;1.20;;;1.20;;
8893;SDS011;4483;48.622;9.230;2023-04-29T07:39:00;1.00;;;1.00;;
8893;SDS011;4483;48.622;9.230;2023-04-29T07:41:29;1.15;;;1.10;;
8893;SDS011;4483;48.622;9.230;2023-04-29T07:43:55;1.27;;;1.27;;
8893;SDS011;4483;48.622;9.230;2023-04-29T07:46:22;1.10;;;1.10;;
8893;SDS011;4483;48.622;9.230;2023-04-29T07:48:48;0.98;;;0.90;;
8893;SDS011;4483;48.622;9.230;2023-04-29T07:51:16;1.00;;;0.93;;
8893;SDS011;4483;48.622;9.230;2023-04-29T07:53:42;1.10;;;1.10;;
8893;SDS011;4483;48.622;9.230;2023-04-29T07:56:09;0.85;;;0.85;;
8893;SDS011;4483;48.622;9.230;2023-04-29T07:58:37;1.10;;;1.10;;
8893;SDS011;4483;48.622;9.230;2023-04-29T08:01:04;1.00;;;1.00;;
8893;SDS011;4483;48.622;9.230;2023-04-29T08:03:31;0.98;;;0.98;;
8893;SDS011;4483;48.622;9.230;2023-04-29T08:05:59;1.00;;;1.00;;
8893;SDS011;4483;48.622;9.230;2023-04-29T08:08:27;0.90;;;0.90;;
8893;SDS011;4483;48.622;9.230;2023-04-29T08:10:53;1.30;;;1.00;;
8893;SDS011;4483;48.622;9.230;2023-04-29T08:13:20;1.00;;;1.00;;
8893;SDS011;4483;48.622;9.230;2023-04-29T08:15:48;0.80;;;0.80;;
8893;SDS011;4483;48.622;9.230;2023-04-29T08:18:15;1.00;;;0.90;;
8893;SDS011;4483;48.622;9.230;2023-04-29T08:20:42;0.90;;;0.80;;
8893;SDS011;4483;48.622;9.230;2023-04-29T08:23:09;0.65;;;0.65;;
8893;SDS011;4483;48.622;9.230;2023-04-29T08:25:35;1.52;;;0.90;;
8893;SDS011;4483;48.622;9.230;2023-04-29T08:28:02;1.75;;;0.70;;
8893;SDS011;4483;48.622;9.230;2023-04-29T08:30:29;0.50;;;0.50;;
8893;SDS011;4483;48.622;9.230;2023-04-29T08:32:57;1.00;;;0.73;;
8893;SDS011;4483;48.622;9.230;2023-04-29T08:35:24;1.10;;;0.80;;
8893;SDS011;4483;48.622;9.230;2023-04-29T08:37:51;2.20;;;0.77;;
8893;SDS011;4483;48.622;9.230;2023-04-29T08:40:18;0.85;;;0.85;;
8893;SDS011;4483;48.622;9.230;2023-04-29T08:42:45;0.60;;;0.60;;
8893;SDS011;4483;48.622;9.230;2023-04-29T08:45:14;0.60;;;0.60;;
8893;SDS011;4483;48.622;9.230;2023-04-29T08:47:45;0.60;;;0.60;;
8893;SDS011;4483;48.622;9.230;2023-04-29T08:50:14;0.77;;;0.77;;
8893;SDS011;4483;48.622;9.230;2023-04-29T08:52:42;0.80;;;0.80;;
8893;SDS011;4483;48.622;9.230;2023-04-29T08:55:08;2.20;;;0.80;;
8893;SDS011;4483;48.622;9.230;2023-04-29T08:57:35;1.50;;;0.70;;
8893;SDS011;4483;48.622;9.230;2023-04-29T09:00:05;0.82;;;0.82;;
8893;SDS011;4483;48.622;9.230;2023-04-29T09:02:34;0.80;;;0.80;;
8893;SDS011;4483;48.622;9.230;2023-04-29T09:05:07;0.68;;;0.68;;
8893;SDS011;4483;48.622;9.230;2023-04-29T09:07:36;0.68;;;0.68;;
8893;SDS011;4483;48.622;9.230;2023-04-29T09:10:04;0.60;;;0.60;;
8893;SDS011;4483;48.622;9.230;2023-04-29T09:12:32;0.70;;;0.70;;
8893;SDS011;4483;48.622;9.230;2023-04-29T09:15:00;0.60;;;0.60;;
8893;SDS011;4483;48.622;9.230;2023-04-29T09:17:39;0.63;;;0.60;;
8893;SDS011;4483;48.622;9.230;2023-04-29T09:22:53;0.70;;;0.70;;
8893;SDS011;4483;48.622;9.230;2023-04-29T09:25:21;0.68;;;0.68;;
8893;SDS011;4483;48.622;9.230;2023-04-29T09:27:48;0.80;;;0.80;;
8893;SDS011;4483;48.622;9.230;2023-04-29T09:30:15;0.68;;;0.68;;
8893;SDS011;4483;48.622;9.230;2023-04-29T09:32:43;2.97;;;0.90;;
8893;SDS011;4483;48.622;9.230;2023-04-29T09:35:20;0.63;;;0.63;;
8893;SDS011;4483;48.622;9.230;2023-04-29T09:37:48;0.70;;;0.70;;
8893;SDS011;4483;48.622;9.230;2023-04-29T09:42:56;0.60;;;0.60;;
8893;SDS011;4483;48.622;9.230;2023-04-29T09:45:35;2.60;;;0.70;;
8893;SDS011;4483;48.622;9.230;2023-04-29T09:48:04;1.30;;;0.73;;
8893;SDS011;4483;48.622;9.230;2023-04-29T09:50:32;0.98;;;0.77;;
8893;SDS011;4483;48.622;9.230;2023-04-29T09:53:01;1.00;;;1.00;;
8893;SDS011;4483;48.622;9.230;2023-04-29T09:55:29;0.70;;;0.70;;
8893;SDS011;4483;48.622;9.230;2023-04-29T09:57:57;0.85;;;0.85;;
8893;SDS011;4483;48.622;9.230;2023-04-29T10:00:24;0.73;;;0.73;;
8893;SDS011;4483;48.622;9.230;2023-04-29T10:02:56;0.93;;;0.93;;
8893;SDS011;4483;48.622;9.230;2023-04-29T10:05:24;1.33;;;0.90;;
8893;SDS011;4483;48.622;9.230;2023-04-29T10:07:53;1.00;;;1.00;;
8893;SDS011;4483;48.622;9.230;2023-04-29T10:10:21;1.15;;;1.13;;
8893;SDS011;4483;48.622;9.230;2023-04-29T10:12:52;1.05;;;1.05;;
8893;SDS011;4483;48.622;9.230;2023-04-29T10:15:19;1.05;;;1.05;;
8893;SDS011;4483;48.622;9.230;2023-04-29T10:17:52;1.30;;;1.20;;
8893;SDS011;4483;48.622;9.230;2023-04-29T10:20:23;1.20;;;1.20;;
8893;SDS011;4483;48.622;9.230;2023-04-29T10:22:51;1.00;;;1.00;;
8893;SDS011;4483;48.622;9.230;2023-04-29T10:25:20;0.90;;;0.90;;
8893;SDS011;4483;48.622;9.230;2023-04-29T10:27:49;3.75;;;1.10;;
8893;SDS011;4483;48.622;9.230;2023-04-29T10:30:19;1.00;;;1.00;;
8893;SDS011;4483;48.622;9.230;2023-04-29T10:32:47;2.30;;;1.20;;
8893;SDS011;4483;48.622;9.230;2023-04-29T10:35:15;1.48;;;1.00;;
8893;SDS011;4483;48.622;9.230;2023-04-29T10:37:44;1.10;;;1.10;;
8893;SDS011;4483;48.622;9.230;2023-04-29T10:40:14;1.88;;;1.20;;
8893;SDS011;4483;48.622;9.230;2023-04-29T10:42:43;1.60;;;1.35;;
8893;SDS011;4483;48.622;9.230;2023-04-29T10:45:20;1.30;;;1.30;;
8893;SDS011;4483;48.622;9.230;2023-04-29T10:53:28;1.00;;;1.00;;
8893;SDS011;4483;48.622;9.230;2023-04-29T10:55:56;1.00;;;1.00;;
8893;SDS011;4483;48.622;9.230;2023-04-29T10:58:37;1.23;;;1.23;;
8893;SDS011;4483;48.622;9.230;2023-04-29T11:01:10;1.00;;;1.00;;
8893;SDS011;4483;48.622;9.230;2023-04-29T11:03:45;1.10;;;1.10;;
8893;SDS011;4483;48.622;9.230;2023-04-29T11:06:13;1.45;;;1.30;;
8893;SDS011;4483;48.622;9.230;2023-04-29T11:08:40;1.85;;;1.10;;
8893;SDS011;4483;48.622;9.230;2023-04-29T11:11:07;0.85;;;0.85;;
8893;SDS011;4483;48.622;9.230;2023-04-29T11:13:36;1.35;;;1.00;;
8893;SDS011;4483;48.622;9.230;2023-04-29T11:16:05;1.23;;;1.13;;
8893;SDS011;4483;48.622;9.230;2023-04-29T11:18:33;1.33;;;1.10;;
8893;SDS011;4483;48.622;9.230;2023-04-29T11:21:13;0.90;;;0.90;;
8893;SDS011;4483;48.622;9.230;2023-04-29T11:23:40;1.08;;;1.00;;
8893;SDS011;4483;48.622;9.230;2023-04-29T11:26:09;1.20;;;1.00;;
8893;SDS011;4483;48.622;9.230;2023-04-29T11:28:36;1.38;;;1.23;;
8893;SDS011;4483;48.622;9.230;2023-04-29T11:31:04;1.17;;;1.08;;
8893;SDS011;4483;48.622;9.230;2023-04-29T11:33:34;1.42;;;1.10;;
8893;SDS011;4483;48.622;9.230;2023-04-29T11:36:00;1.50;;;1.40;;
8893;SDS011;4483;48.622;9.230;2023-04-29T11:38:29;1.23;;;1.10;;
8893;SDS011;4483;48.622;9.230;2023-04-29T11:40:56;1.17;;;1.17;;
8893;SDS011;4483;48.622;9.230;2023-04-29T11:43:24;1.20;;;1.10;;
8893;SDS011;4483;48.622;9.230;2023-04-29T11:45:51;1.40;;;1.25;;
8893;SDS011;4483;48.622;9.230;2023-04-29T11:48:18;1.60;;;1.50;;
8893;SDS011;4483;48.622;9.230;2023-04-29T11:50:47;1.45;;;1.45;;
8893;SDS011;4483;48.622;9.230;2023-04-29T11:53:15;1.40;;;1.30;;
8893;SDS011;4483;48.622;9.230;2023-04-29T11:55:45;1.02;;;1.02;;
8893;SDS011;4483;48.622;9.230;2023-04-29T11:58:13;2.22;;;1.30;;
8893;SDS011;4483;48.622;9.230;2023-04-29T12:00:39;1.27;;;1.17;;
8893;SDS011;4483;48.622;9.230;2023-04-29T12:03:06;1.25;;;1.25;;
8893;SDS011;4483;48.622;9.230;2023-04-29T12:05:38;1.45;;;1.45;;
8893;SDS011;4483;48.622;9.230;2023-04-29T12:08:07;1.30;;;1.30;;
8893;SDS011;4483;48.622;9.230;2023-04-29T12:10:34;3.28;;;1.50;;
8893;SDS011;4483;48.622;9.230;2023-04-29T12:13:01;1.48;;;1.42;;
8893;SDS011;4483;48.622;9.230;2023-04-29T12:15:28;1.30;;;1.30;;
8893;SDS011;4483;48.622;9.230;2023-04-29T12:17:56;0.98;;;0.98;;
8893;SDS011;4483;48.622;9.230;2023-04-29T12:20:23;1.27;;;1.17;;
8893;SDS011;4483;48.622;9.230;2023-04-29T12:22:49;1.25;;;1.25;;
8893;SDS011;4483;48.622;9.230;2023-04-29T12:25:18;1.20;;;1.20;;
8893;SDS011;4483;48.622;9.230;2023-04-29T12:27:46;1.20;;;1.10;;
8893;SDS011;4483;48.622;9.230;2023-04-29T12:30:13;0.80;;;0.80;;
8893;SDS011;4483;48.622;9.230;2023-04-29T12:32:40;3.17;;;1.30;;
8893;SDS011;4483;48.622;9.230;2023-04-29T12:35:13;1.23;;;1.13;;
8893;SDS011;4483;48.622;9.230;2023-04-29T12:37:41;1.38;;;1.27;;
8893;SDS011;4483;48.622;9.230;2023-04-29T12:40:12;1.25;;;1.17;;
8893;SDS011;4483;48.622;9.230;2023-04-29T12:42:40;2.20;;;1.25;;
8893;SDS011;4483;48.622;9.230;2023-04-29T12:45:09;1.20;;;1.20;;
8893;SDS011;4483;48.622;9.230;2023-04-29T12:47:51;1.10;;;1.10;;
8893;SDS011;4483;48.622;9.230;2023-04-29T12:50:18;1.55;;;1.40;;
8893;SDS011;4483;48.622;9.230;2023-04-29T12:52:45;1.63;;;1.52;;
8893;SDS011;4483;48.622;9.230;2023-04-29T12:55:11;1.70;;;1.60;;
8893;SDS011;4483;48.622;9.230;2023-04-29T12:57:38;2.08;;;1.80;;
8893;SDS011;4483;48.622;9.230;2023-04-29T13:00:07;5.80;;;1.73;;
8893;SDS011;4483;48.622;9.230;2023-04-29T13:02:34;2.03;;;1.92;;
8893;SDS011;4483;48.622;9.230;2023-04-29T13:05:01;1.90;;;1.80;;
8893;SDS011;4483;48.622;9.230;2023-04-29T13:07:28;1.80;;;1.70;;
8893;SDS011;4483;48.622;9.230;2023-04-29T13:09:55;4.63;;;1.92;;
8893;SDS011;4483;48.622;9.230;2023-04-29T13:12:21;1.95;;;1.85;;
8893;SDS011;4483;48.622;9.230;2023-04-29T13:14:48;3.60;;;2.08;;
8893;SDS011;4483;48.622;9.230;2023-04-29T13:17:16;2.45;;;2.35;;
8893;SDS011;4483;48.622;9.230;2023-04-29T13:19:43;2.40;;;2.20;;
8893;SDS011;4483;48.622;9.230;2023-04-29T13:22:10;4.00;;;2.35;;
8893;SDS011;4483;48.622;9.230;2023-04-29T13:24:36;2.45;;;2.30;;
8893;SDS011;4483;48.622;9.230;2023-04-29T13:27:03;2.33;;;2.22;;
8893;SDS011;4483;48.622;9.230;2023-04-29T13:29:29;2.50;;;2.20;;
8893;SDS011;4483;48.622;9.230;2023-04-29T13:31:56;2.30;;;2.10;;
8893;SDS011;4483;48.622;9.230;2023-04-29T13:34:24;2.58;;;2.38;;
8893;SDS011;4483;48.622;9.230;2023-04-29T13:36:51;2.90;;;2.45;;
8893;SDS011;4483;48.622;9.230;2023-04-29T13:39:17;4.32;;;2.40;;
8893;SDS011;4483;48.622;9.230;2023-04-29T13:41:47;2.75;;;2.55;;
8893;SDS011;4483;48.622;9.230;2023-04-29T13:44:14;2.83;;;2.38;;
8893;SDS011;4483;48.622;9.230;2023-04-29T13:46:40;2.70;;;2.50;;
8893;SDS011;4483;48.622;9.230;2023-04-29T13:49:07;2.67;;;2.47;;
8893;SDS011;4483;48.622;9.230;2023-04-29T13:51:35;2.58;;;2.38;;
8893;SDS011;4483;48.622;9.230;2023-04-29T13:54:02;4.97;;;2.50;;
8893;SDS011;4483;48.622;9.230;2023-04-29T13:56:28;3.90;;;2.45;;
8893;SDS011;4483;48.622;9.230;2023-04-29T13:58:55;2.63;;;2.42;;
8893;SDS011;4483;48.622;9.230;2023-04-29T14:01:21;3.85;;;2.63;;
8893;SDS011;4483;48.622;9.230;2023-04-29T14:03:48;2.92;;;2.70;;
8893;SDS011;4483;48.622;9.230;2023-04-29T14:06:15;2.35;;;2.20;;
8893;SDS011;4483;48.622;9.230;2023-04-29T14:08:43;2.50;;;2.30;;
8893;SDS011;4483;48.622;9.230;2023-04-29T14:11:10;2.53;;;2.38;;
8893;SDS011;4483;48.622;9.230;2023-04-29T14:13:36;3.10;;;2.47;;
8893;SDS011;4483;48.622;9.230;2023-04-29T14:16:03;2.97;;;2.40;;
8893;SDS011;4483;48.622;9.230;2023-04-29T14:18:31;6.43;;;2.50;;
8893;SDS011;4483;48.622;9.230;2023-04-29T14:20:57;3.42;;;2.90;;
8893;SDS011;4483;48.622;9.230;2023-04-29T14:23:24;3.03;;;2.83;;
8893;SDS011;4483;48.622;9.230;2023-04-29T14:25:52;7.47;;;4.18;;
8893;SDS011;4483;48.622;9.230;2023-04-29T14:28:19;3.97;;;3.65;;
8893;SDS011;4483;48.622;9.230;2023-04-29T14:30:46;3.67;;;3.40;;
8893;SDS011;4483;48.622;9.230;2023-04-29T14:33:13;4.03;;;3.63;;
8893;SDS011;4483;48.622;9.230;2023-04-29T14:35:40;4.53;;;4.00;;
8893;SDS011;4483;48.622;9.230;2023-04-29T14:38:06;8.07;;;4.90;;
8893;SDS011;4483;48.622;9.230;2023-04-29T14:40:33;3.10;;;2.72;;
8893;SDS011;4483;48.622;9.230;2023-04-29T14:43:02;4.05;;;3.72;;
8893;SDS011;4483;48.622;9.230;2023-04-29T14:45:29;4.70;;;3.40;;
8893;SDS011;4483;48.622;9.230;2023-04-29T14:47:56;3.50;;;3.20;;
8893;SDS011;4483;48.622;9.230;2023-04-29T14:50:22;4.88;;;3.40;;
8893;SDS011;4483;48.622;9.230;2023-04-29T14:52:49;3.97;;;3.22;;
8893;SDS011;4483;48.622;9.230;2023-04-29T14:55:16;3.80;;;3.40;;
8893;SDS011;4483;48.622;9.230;2023-04-29T14:57:43;3.13;;;2.92;;
8893;SDS011;4483;48.622;9.230;2023-04-29T15:00:12;3.05;;;2.85;;
8893;SDS011;4483;48.622;9.230;2023-04-29T15:02:39;3.28;;;2.92;;
8893;SDS011;4483;48.622;9.230;2023-04-29T15:05:06;4.05;;;2.88;;
8893;SDS011;4483;48.622;9.230;2023-04-29T15:07:33;3.28;;;3.00;;
8893;SDS011;4483;48.622;9.230;2023-04-29T15:10:00;4.50;;;3.33;;
8893;SDS011;4483;48.622;9.230;2023-04-29T15:12:27;3.95;;;3.28;;
8893;SDS011;4483;48.622;9.230;2023-04-29T15:14:54;5.57;;;4.03;;
8893;SDS011;4483;48.622;9.230;2023-04-29T15:17:22;4.68;;;4.28;;
8893;SDS011;4483;48.622;9.230;2023-04-29T15:19:49;6.03;;;4.30;;
8893;SDS011;4483;48.622;9.230;2023-04-29T15:22:16;4.30;;;3.90;;
8893;SDS011;4483;48.622;9.230;2023-04-29T15:24:43;3.80;;;3.50;;
8893;SDS011;4483;48.622;9.230;2023-04-29T15:27:10;3.63;;;3.40;;
8893;SDS011;4483;48.622;9.230;2023-04-29T15:29:36;3.67;;;3.45;;